Time;durP1;ratioP1;P1;durP2;ratioP2;P2;SDS_P1;SDS_P2;PMS_P1;PMS_P2;Temp;Humidity;BMP_temperature;BMP_pressure;BME280_temperature;BME280_humidity;BME280_pressure;Samples;Min_cycle;Max_cycle;Signal;HPM_P1;HPM_P2
2023/08/04 00:00:55;;;;;;;11.63;4.82;;;;;;;;;;5037458;28;20224;-81
2023/08/04 00:03:23;;;;;;;9.35;5.13;;;;;;;;;;4994459;28;20300;-80
2023/08/04 00:05:51;;;;;;;10.75;4.90;;;;;;;;;;5016737;28;20235;-82
2023/08/04 00:08:19;;;;;;;17.98;4.82;;;;;;;;;;5024973;28;20223;-82
2023/08/04 00:10:44;;;;;;;10.80;4.32;;;;;;;;;;4992194;28;20804;-81
2023/08/04 00:13:10;;;;;;;15.45;5.55;;;;;;;;;;5008713;28;20235;-82
2023/08/04 00:15:35;;;;;;;9.43;4.68;;;;;;;;;;5023404;28;20234;-81
2023/08/04 00:18:05;;;;;;;9.93;4.25;;;;;;;;;;5032656;28;20223;-83
2023/08/04 00:20:33;;;;;;;9.73;4.40;;;;;;;;;;5050695;28;20223;-80
2023/08/04 00:23:01;;;;;;;12.18;4.72;;;;;;;;;;5019021;28;20217;-81
2023/08/04 00:25:29;;;;;;;10.32;4.78;;;;;;;;;;5009582;28;20569;-82
2023/08/04 00:27:55;;;;;;;12.20;5.35;;;;;;;;;;4997192;28;20219;-84
2023/08/04 00:30:25;;;;;;;9.13;4.85;;;;;;;;;;5017178;28;20266;-82
2023/08/04 00:32:51;;;;;;;8.55;4.72;;;;;;;;;;4991863;28;20239;-84
2023/08/04 00:35:16;;;;;;;11.82;4.97;;;;;;;;;;4987166;28;20685;-83
2023/08/04 00:37:49;;;;;;;7.68;4.68;;;;;;;;;;5021132;28;20319;-83
2023/08/04 00:40:19;;;;;;;12.35;4.95;;;;;;;;;;5017638;28;20771;-84
2023/08/04 00:42:45;;;;;;;10.82;5.70;;;;;;;;;;5042882;28;20228;-83
2023/08/04 00:45:10;;;;;;;15.48;4.93;;;;;;;;;;5023987;28;20228;-84
2023/08/04 00:47:37;;;;;;;7.72;5.20;;;;;;;;;;5026985;28;20224;-83
2023/08/04 00:50:06;;;;;;;8.70;5.55;;;;;;;;;;5002263;28;20215;-82
2023/08/04 00:52:32;;;;;;;14.80;5.13;;;;;;;;;;5021895;28;20221;-82
2023/08/04 00:54:57;;;;;;;7.68;4.78;;;;;;;;;;5041150;28;20578;-83
2023/08/04 00:57:23;;;;;;;15.25;5.68;;;;;;;;;;5033459;28;20223;-83
2023/08/04 00:59:50;;;;;;;12.25;5.35;;;;;;;;;;5016407;28;20697;-80
2023/08/04 01:02:16;;;;;;;16.33;5.47;;;;;;;;;;5010074;28;20315;-84
2023/08/04 01:04:41;;;;;;;13.65;5.65;;;;;;;;;;5049652;28;20226;-81
2023/08/04 01:07:20;;;;;;;9.57;5.60;;;;;;;;;;5000067;28;20212;-83
2023/08/04 01:10:10;;;;;;;8.60;5.45;;;;;;;;;;5037060;28;20232;-83
2023/08/04 01:13:06;;;;;;;14.73;5.80;;;;;;;;;;5021670;28;20232;-83
2023/08/04 01:15:37;;;;;;;13.85;6.25;;;;;;;;;;5028093;28;20227;-83
2023/08/04 01:18:06;;;;;;;8.75;6.05;;;;;;;;;;5016847;28;20278;-84
2023/08/04 01:20:31;;;;;;;9.00;5.85;;;;;;;;;;5037499;28;20242;-84
2023/08/04 01:22:59;;;;;;;9.60;6.35;;;;;;;;;;5000075;28;20592;-84
2023/08/04 01:25:33;;;;;;;12.95;6.03;;;;;;;;;;5020229;28;20220;-82
2023/08/04 01:28:04;;;;;;;13.15;5.70;;;;;;;;;;5036323;28;20262;-82
2023/08/04 01:30:30;;;;;;;10.23;5.95;;;;;;;;;;5013869;28;20232;-83
2023/08/04 01:32:56;;;;;;;9.70;5.45;;;;;;;;;;5029170;28;20215;-84
2023/08/04 01:35:24;;;;;;;9.15;5.93;;;;;;;;;;5045116;28;20750;-84
2023/08/04 01:37:49;;;;;;;11.90;5.85;;;;;;;;;;5047944;28;20232;-82
2023/08/04 01:40:15;;;;;;;10.20;5.68;;;;;;;;;;5018986;28;20233;-83
2023/08/04 01:42:41;;;;;;;10.32;5.95;;;;;;;;;;5044950;28;20268;-85
2023/08/04 01:45:11;;;;;;;13.07;5.80;;;;;;;;;;5022391;28;20213;-83
2023/08/04 01:47:38;;;;;;;12.07;6.20;;;;;;;;;;5021086;28;20315;-83
2023/08/04 01:50:08;;;;;;;13.65;5.90;;;;;;;;;;5018010;28;20245;-83
2023/08/04 01:52:38;;;;;;;9.27;5.53;;;;;;;;;;5047591;28;20320;-85
2023/08/04 01:55:07;;;;;;;9.43;5.25;;;;;;;;;;5034861;28;20242;-83
2023/08/04 01:57:41;;;;;;;6.75;5.15;;;;;;;;;;5045775;28;20272;-85
2023/08/04 02:00:10;;;;;;;11.43;5.35;;;;;;;;;;5057638;28;20222;-83
2023/08/04 02:02:39;;;;;;;9.93;5.68;;;;;;;;;;5035779;28;20225;-83
2023/08/04 02:05:05;;;;;;;11.35;6.25;;;;;;;;;;5014883;28;20628;-83
2023/08/04 02:07:33;;;;;;;14.10;5.78;;;;;;;;;;5035641;28;20226;-82
2023/08/04 02:09:59;;;;;;;6.97;5.30;;;;;;;;;;5030084;28;20207;-82
2023/08/04 02:12:29;;;;;;;9.13;5.78;;;;;;;;;;5043900;28;20227;-83
2023/08/04 02:14:57;;;;;;;11.80;5.53;;;;;;;;;;5021135;28;20220;-83
2023/08/04 02:17:25;;;;;;;8.70;4.72;;;;;;;;;;5029493;28;20294;-82
2023/08/04 02:19:50;;;;;;;11.07;4.97;;;;;;;;;;5029027;28;20700;-84
2023/08/04 02:22:16;;;;;;;12.20;4.88;;;;;;;;;;5003942;28;20826;-82
2023/08/04 02:24:44;;;;;;;5.50;4.60;;;;;;;;;;5002093;28;20282;-82
2023/08/04 02:27:14;;;;;;;8.95;5.13;;;;;;;;;;5015350;28;20274;-82
2023/08/04 02:29:42;;;;;;;8.38;4.78;;;;;;;;;;4985465;28;20228;-83
2023/08/04 02:32:11;;;;;;;8.35;4.60;;;;;;;;;;4998499;28;20213;-81
2023/08/04 02:34:41;;;;;;;10.85;5.10;;;;;;;;;;5039931;28;20207;-84
2023/08/04 02:37:11;;;;;;;8.75;4.93;;;;;;;;;;5016439;28;20228;-84
2023/08/04 02:39:39;;;;;;;10.57;5.03;;;;;;;;;;5025871;28;20242;-82
2023/08/04 02:42:07;;;;;;;11.95;5.22;;;;;;;;;;5008866;28;20276;-82
2023/08/04 02:44:36;;;;;;;6.93;4.50;;;;;;;;;;5015669;28;20284;-82
2023/08/04 02:47:04;;;;;;;6.70;4.47;;;;;;;;;;5015417;28;20233;-82
2023/08/04 02:49:34;;;;;;;8.57;5.15;;;;;;;;;;5037368;28;20750;-81
2023/08/04 02:52:06;;;;;;;8.55;4.35;;;;;;;;;;5004698;28;20232;-82
2023/08/04 02:54:32;;;;;;;9.10;5.05;;;;;;;;;;5030702;28;20234;-83
2023/08/04 02:57:05;;;;;;;7.28;4.05;;;;;;;;;;4997057;28;20376;-83
2023/08/04 02:59:33;;;;;;;16.38;4.70;;;;;;;;;;5043434;28;20640;-82
2023/08/04 03:01:58;;;;;;;6.93;4.43;;;;;;;;;;5035754;28;20228;-82
2023/08/04 03:04:27;;;;;;;10.50;4.80;;;;;;;;;;5007453;28;20223;-82
2023/08/04 03:06:52;;;;;;;8.23;4.35;;;;;;;;;;5028592;28;20217;-82
2023/08/04 03:09:20;;;;;;;10.43;5.00;;;;;;;;;;5023384;28;20217;-81
2023/08/04 03:11:48;;;;;;;6.78;4.63;;;;;;;;;;5039025;28;20228;-84
2023/08/04 03:14:13;;;;;;;12.45;4.20;;;;;;;;;;5022130;28;20240;-81
2023/08/04 03:16:39;;;;;;;12.30;4.78;;;;;;;;;;5031791;28;20314;-82
2023/08/04 03:19:09;;;;;;;5.03;4.28;;;;;;;;;;5014364;28;20224;-82
2023/08/04 03:21:35;;;;;;;8.85;4.43;;;;;;;;;;5062328;28;20237;-82
2023/08/04 03:24:00;;;;;;;8.02;4.43;;;;;;;;;;5047544;28;20228;-80
2023/08/04 03:26:29;;;;;;;7.60;4.28;;;;;;;;;;5005333;28;20219;-82
2023/08/04 03:28:57;;;;;;;7.10;4.40;;;;;;;;;;5023088;28;20219;-82
2023/08/04 03:31:22;;;;;;;9.07;4.65;;;;;;;;;;5009641;28;20251;-83
2023/08/04 03:33:48;;;;;;;7.38;4.18;;;;;;;;;;5020929;28;20615;-83
2023/08/04 03:36:16;;;;;;;6.80;4.20;;;;;;;;;;5009872;28;20217;-84
2023/08/04 03:38:44;;;;;;;11.13;4.32;;;;;;;;;;5009900;28;20228;-84
2023/08/04 03:41:14;;;;;;;9.80;4.38;;;;;;;;;;5011954;28;20212;-84
2023/08/04 03:43:42;;;;;;;6.82;4.55;;;;;;;;;;5003966;28;20230;-82
2023/08/04 03:46:09;;;;;;;10.50;4.20;;;;;;;;;;5038913;28;20215;-83
2023/08/04 03:48:37;;;;;;;8.85;4.50;;;;;;;;;;5013412;28;20220;-84
2023/08/04 03:51:03;;;;;;;7.80;4.05;;;;;;;;;;4979423;28;20322;-82
2023/08/04 03:53:28;;;;;;;7.57;4.68;;;;;;;;;;5014962;28;20580;-83
2023/08/04 03:55:54;;;;;;;8.80;4.70;;;;;;;;;;5050236;28;20227;-84
2023/08/04 03:58:22;;;;;;;11.25;4.53;;;;;;;;;;5002411;28;20218;-84
2023/08/04 04:04:36;;;;;;;8.32;4.45;;;;;;;;;;5039769;28;20239;-84
2023/08/04 04:07:02;;;;;;;10.65;4.75;;;;;;;;;;5021965;28;20224;-82
2023/08/04 04:09:27;;;;;;;9.60;5.15;;;;;;;;;;5049816;28;20595;-83
2023/08/04 04:11:53;;;;;;;7.35;4.45;;;;;;;;;;5019781;28;20654;-83
2023/08/04 04:14:21;;;;;;;12.27;4.72;;;;;;;;;;5003137;28;20220;-84
2023/08/04 04:16:49;;;;;;;7.20;4.97;;;;;;;;;;5016259;28;20293;-82
2023/08/04 04:19:14;;;;;;;8.70;5.15;;;;;;;;;;5021887;28;20238;-84
2023/08/04 04:21:40;;;;;;;14.73;5.95;;;;;;;;;;5009535;28;20765;-83
2023/08/04 04:24:08;;;;;;;10.57;5.10;;;;;;;;;;5038014;28;20233;-84
2023/08/04 04:26:33;;;;;;;7.07;4.90;;;;;;;;;;4994753;28;20680;-84
2023/08/04 04:28:59;;;;;;;10.73;4.85;;;;;;;;;;5015068;28;20239;-83
2023/08/04 04:31:27;;;;;;;11.93;5.65;;;;;;;;;;5025477;28;20218;-82
2023/08/04 04:33:52;;;;;;;7.53;4.85;;;;;;;;;;5025239;28;20227;-83
2023/08/04 04:36:27;;;;;;;8.20;5.40;;;;;;;;;;4993239;28;20224;-82
2023/08/04 04:38:55;;;;;;;7.78;5.07;;;;;;;;;;5028227;28;20215;-83
2023/08/04 04:41:20;;;;;;;9.52;5.57;;;;;;;;;;5012088;28;20251;-82
2023/08/04 04:43:46;;;;;;;11.85;5.22;;;;;;;;;;5023173;28;20228;-84
2023/08/04 04:46:11;;;;;;;12.63;5.85;;;;;;;;;;5002280;28;20648;-84
2023/08/04 04:48:42;;;;;;;7.05;4.68;;;;;;;;;;5035520;28;20219;-84
2023/08/04 04:51:07;;;;;;;9.13;5.05;;;;;;;;;;5035734;28;20260;-83
2023/08/04 04:53:35;;;;;;;7.57;4.50;;;;;;;;;;5011990;28;20235;-84
2023/08/04 04:56:03;;;;;;;8.10;4.78;;;;;;;;;;5056014;28;20220;-83
2023/08/04 04:58:28;;;;;;;12.20;5.40;;;;;;;;;;5039229;28;20243;-83
2023/08/04 05:01:04;;;;;;;11.10;4.60;;;;;;;;;;5056458;28;20212;-84
2023/08/04 05:03:30;;;;;;;7.30;4.78;;;;;;;;;;5024034;28;20239;-83
2023/08/04 05:05:58;;;;;;;5.72;4.38;;;;;;;;;;5047252;28;20217;-84
2023/08/04 05:08:28;;;;;;;11.60;4.65;;;;;;;;;;5018381;28;20220;-83
2023/08/04 05:10:56;;;;;;;11.45;4.70;;;;;;;;;;5016501;28;20234;-83
2023/08/04 05:13:24;;;;;;;10.77;5.15;;;;;;;;;;5013466;28;20224;-85
2023/08/04 05:15:52;;;;;;;9.98;4.65;;;;;;;;;;5048322;28;20219;-84
2023/08/04 05:18:17;;;;;;;8.35;5.10;;;;;;;;;;5034089;28;20223;-85
2023/08/04 05:20:45;;;;;;;6.10;4.75;;;;;;;;;;5024078;28;20255;-84
2023/08/04 05:23:13;;;;;;;9.98;4.95;;;;;;;;;;5036599;28;20359;-84
2023/08/04 05:25:41;;;;;;;7.50;4.95;;;;;;;;;;5040025;28;20223;-84
2023/08/04 05:28:28;;;;;;;9.13;4.72;;;;;;;;;;5010896;28;20238;-85
2023/08/04 05:30:59;;;;;;;8.88;4.82;;;;;;;;;;5031067;28;20223;-83
2023/08/04 05:33:25;;;;;;;8.95;4.70;;;;;;;;;;5013652;28;20224;-83
2023/08/04 05:35:56;;;;;;;7.05;4.78;;;;;;;;;;5030450;28;20219;-84
2023/08/04 05:38:29;;;;;;;8.88;4.30;;;;;;;;;;5017417;28;20223;-83
2023/08/04 05:41:00;;;;;;;6.53;4.00;;;;;;;;;;5036060;28;20232;-82
2023/08/04 05:43:25;;;;;;;7.82;4.10;;;;;;;;;;5025689;28;20242;-85
2023/08/04 05:45:53;;;;;;;9.18;4.32;;;;;;;;;;5036653;28;20223;-85
2023/08/04 05:48:19;;;;;;;12.43;4.60;;;;;;;;;;5006971;28;20264;-82
2023/08/04 05:50:49;;;;;;;7.18;3.75;;;;;;;;;;5049172;28;20235;-83
2023/08/04 05:53:18;;;;;;;6.53;3.78;;;;;;;;;;5037383;28;20231;-83
2023/08/04 05:55:48;;;;;;;11.55;4.00;;;;;;;;;;5032130;28;20239;-85
2023/08/04 05:58:16;;;;;;;9.18;4.05;;;;;;;;;;5030972;28;20295;-84
2023/08/04 06:00:42;;;;;;;7.88;4.05;;;;;;;;;;5034714;28;20628;-84
2023/08/04 06:03:07;;;;;;;6.45;4.03;;;;;;;;;;5035324;28;20218;-84
2023/08/04 06:05:35;;;;;;;5.32;3.78;;;;;;;;;;5001440;28;20216;-82
2023/08/04 06:08:06;;;;;;;9.80;4.78;;;;;;;;;;5037985;28;20235;-82
2023/08/04 06:10:32;;;;;;;8.13;4.28;;;;;;;;;;5034151;28;20277;-84
2023/08/04 06:13:03;;;;;;;10.45;4.72;;;;;;;;;;5009446;28;20217;-82
2023/08/04 06:15:28;;;;;;;8.48;4.63;;;;;;;;;;5027961;28;20220;-85
2023/08/04 06:17:54;;;;;;;5.57;4.38;;;;;;;;;;5022046;28;20228;-84
2023/08/04 06:20:22;;;;;;;8.52;4.90;;;;;;;;;;5035341;28;20219;-83
2023/08/04 06:22:52;;;;;;;6.90;4.65;;;;;;;;;;5036924;28;20246;-85
2023/08/04 06:25:18;;;;;;;7.20;4.63;;;;;;;;;;5044751;28;20220;-85
2023/08/04 06:27:44;;;;;;;8.15;5.22;;;;;;;;;;5000787;28;20231;-84
2023/08/04 06:30:12;;;;;;;7.15;5.28;;;;;;;;;;5016352;28;20232;-84
2023/08/04 06:32:38;;;;;;;9.18;5.03;;;;;;;;;;4983226;28;20311;-84
2023/08/04 06:35:06;;;;;;;5.25;4.75;;;;;;;;;;5031102;28;20451;-82
2023/08/04 06:37:31;;;;;;;5.28;4.50;;;;;;;;;;5009638;28;20216;-82
2023/08/04 06:39:57;;;;;;;12.27;5.18;;;;;;;;;;5024886;28;20263;-82
2023/08/04 06:42:22;;;;;;;7.03;4.35;;;;;;;;;;5020559;28;20220;-81
2023/08/04 06:44:53;;;;;;;5.75;4.13;;;;;;;;;;5017902;28;20353;-83
2023/08/04 06:47:20;;;;;;;7.35;4.38;;;;;;;;;;5029509;28;20235;-82
2023/08/04 06:49:49;;;;;;;6.97;4.57;;;;;;;;;;5047075;28;20220;-82
2023/08/04 06:52:17;;;;;;;6.03;4.30;;;;;;;;;;5054946;28;20224;-82
2023/08/04 06:54:42;;;;;;;6.75;4.13;;;;;;;;;;5056354;28;20265;-84
2023/08/04 06:57:08;;;;;;;6.20;4.45;;;;;;;;;;5012406;28;20232;-83
2023/08/04 06:59:36;;;;;;;7.40;3.88;;;;;;;;;;5006854;28;20216;-80
2023/08/04 07:02:04;;;;;;;7.78;4.03;;;;;;;;;;5021322;28;20235;-81
2023/08/04 07:04:31;;;;;;;6.75;4.03;;;;;;;;;;5006620;28;20224;-81
2023/08/04 07:06:57;;;;;;;5.90;3.50;;;;;;;;;;5024892;28;20223;-82
2023/08/04 07:09:27;;;;;;;5.80;4.25;;;;;;;;;;5042427;28;20235;-83
2023/08/04 07:11:55;;;;;;;7.25;3.78;;;;;;;;;;5049962;28;20223;-82
2023/08/04 07:14:23;;;;;;;5.72;3.55;;;;;;;;;;4996202;28;20232;-86
2023/08/04 07:16:48;;;;;;;8.05;3.83;;;;;;;;;;5033106;28;20310;-84
2023/08/04 07:19:17;;;;;;;5.03;3.50;;;;;;;;;;5008961;28;20238;-83
2023/08/04 07:21:45;;;;;;;7.18;3.38;;;;;;;;;;5028223;28;20311;-82
2023/08/04 07:24:15;;;;;;;4.45;2.80;;;;;;;;;;5019759;28;20272;-84
2023/08/04 07:26:43;;;;;;;6.47;3.28;;;;;;;;;;5004534;28;21280;-84
2023/08/04 07:29:13;;;;;;;3.80;2.80;;;;;;;;;;5034910;28;20230;-84
2023/08/04 07:31:41;;;;;;;5.28;2.72;;;;;;;;;;5030467;28;20240;-84
2023/08/04 07:34:06;;;;;;;4.47;2.38;;;;;;;;;;5023275;28;20235;-84
2023/08/04 07:36:35;;;;;;;4.43;2.50;;;;;;;;;;5023280;28;20578;-85
2023/08/04 07:39:00;;;;;;;4.50;2.50;;;;;;;;;;5037162;28;20246;-85
2023/08/04 07:41:29;;;;;;;4.90;2.67;;;;;;;;;;5014773;28;20715;-86
2023/08/04 07:43:59;;;;;;;4.80;2.72;;;;;;;;;;5033846;28;20224;-86
2023/08/04 07:46:29;;;;;;;3.92;2.25;;;;;;;;;;5050515;28;20215;-86
2023/08/04 07:48:57;;;;;;;4.47;2.10;;;;;;;;;;5010325;28;20236;-84
2023/08/04 07:51:25;;;;;;;5.53;2.65;;;;;;;;;;5014083;28;20224;-85
2023/08/04 07:53:50;;;;;;;4.63;2.40;;;;;;;;;;5025068;28;20233;-85
2023/08/04 07:56:16;;;;;;;5.38;2.45;;;;;;;;;;5037319;28;21058;-84
2023/08/04 07:58:41;;;;;;;4.85;2.05;;;;;;;;;;5039802;28;20226;-86
2023/08/04 08:01:07;;;;;;;2.60;2.08;;;;;;;;;;5039392;28;20306;-85
2023/08/04 08:03:35;;;;;;;5.10;2.03;;;;;;;;;;4997546;28;20219;-86
2023/08/04 08:06:03;;;;;;;2.75;1.73;;;;;;;;;;5031027;28;20224;-86
2023/08/04 08:08:31;;;;;;;3.97;2.00;;;;;;;;;;5011939;28;20227;-82
2023/08/04 08:10:59;;;;;;;3.45;1.98;;;;;;;;;;5043057;28;20247;-83
2023/08/04 08:13:28;;;;;;;4.97;1.90;;;;;;;;;;5031118;28;20235;-82
2023/08/04 08:15:59;;;;;;;3.47;1.70;;;;;;;;;;5023737;28;20305;-83
2023/08/04 08:18:24;;;;;;;3.70;2.40;;;;;;;;;;5010899;28;20240;-81
2023/08/04 08:20:52;;;;;;;6.70;2.30;;;;;;;;;;5049838;28;20230;-84
2023/08/04 08:23:18;;;;;;;3.70;1.70;;;;;;;;;;5017348;28;20217;-82
2023/08/04 08:25:43;;;;;;;2.67;1.92;;;;;;;;;;5018031;28;20661;-86
2023/08/04 08:28:14;;;;;;;2.50;1.80;;;;;;;;;;5018662;28;20585;-83
2023/08/04 08:30:44;;;;;;;4.00;1.88;;;;;;;;;;5048117;28;20353;-83
2023/08/04 08:33:14;;;;;;;2.95;1.80;;;;;;;;;;5052423;28;20307;-81
2023/08/04 08:35:40;;;;;;;5.60;2.05;;;;;;;;;;5024603;28;20227;-83
2023/08/04 08:38:06;;;;;;;3.70;1.83;;;;;;;;;;5015032;28;20213;-83
2023/08/04 08:40:36;;;;;;;3.03;1.75;;;;;;;;;;5025062;28;20240;-83
2023/08/04 08:43:01;;;;;;;3.55;1.95;;;;;;;;;;5057757;28;20594;-80
2023/08/04 08:45:27;;;;;;;2.55;2.00;;;;;;;;;;5013423;28;20255;-83
2023/08/04 08:47:56;;;;;;;2.65;1.88;;;;;;;;;;5045154;28;20213;-84
2023/08/04 08:50:25;;;;;;;3.95;2.05;;;;;;;;;;5045018;28;20217;-83
2023/08/04 08:53:15;;;;;;;6.38;1.77;;;;;;;;;;5011329;28;20236;-84
2023/08/04 08:55:43;;;;;;;6.50;1.70;;;;;;;;;;5023496;28;20227;-81
2023/08/04 08:58:08;;;;;;;3.95;1.80;;;;;;;;;;5002911;28;20260;-83
2023/08/04 09:00:37;;;;;;;3.78;2.10;;;;;;;;;;5030494;28;20240;-83
2023/08/04 09:03:03;;;;;;;5.10;1.58;;;;;;;;;;5037252;28;20220;-82
2023/08/04 09:05:32;;;;;;;3.53;1.92;;;;;;;;;;5031090;28;20238;-81
2023/08/04 09:08:01;;;;;;;3.30;1.58;;;;;;;;;;5065888;28;20228;-81
2023/08/04 09:10:26;;;;;;;4.38;1.90;;;;;;;;;;5058475;28;20220;-81
2023/08/04 09:12:55;;;;;;;1.60;1.42;;;;;;;;;;5074454;28;20224;-82
2023/08/04 09:15:31;;;;;;;5.55;1.73;;;;;;;;;;5056266;28;20223;-81
2023/08/04 09:17:57;;;;;;;3.00;1.48;;;;;;;;;;5057561;28;20235;-83
2023/08/04 09:20:29;;;;;;;3.15;1.73;;;;;;;;;;5063484;28;20225;-84
2023/08/04 09:22:55;;;;;;;3.08;1.48;;;;;;;;;;5037708;28;20216;-81
2023/08/04 09:25:20;;;;;;;3.10;1.65;;;;;;;;;;5069156;28;20335;-82
2023/08/04 09:27:49;;;;;;;2.33;1.55;;;;;;;;;;5052949;28;20217;-84
2023/08/04 09:30:15;;;;;;;3.85;1.50;;;;;;;;;;5075689;28;20230;-84
2023/08/04 09:32:44;;;;;;;3.20;1.60;;;;;;;;;;5061307;28;20540;-84
2023/08/04 09:35:10;;;;;;;2.80;1.38;;;;;;;;;;5055926;28;20507;-82
2023/08/04 09:37:36;;;;;;;4.00;1.20;;;;;;;;;;5055995;28;20240;-85
2023/08/04 09:40:04;;;;;;;1.95;1.20;;;;;;;;;;5055499;28;20203;-83
2023/08/04 09:42:38;;;;;;;3.78;1.20;;;;;;;;;;5041849;28;20203;-85
2023/08/04 09:45:08;;;;;;;1.27;0.90;;;;;;;;;;5036808;28;20223;-85
2023/08/04 09:47:36;;;;;;;3.15;1.27;;;;;;;;;;5017513;28;20578;-83
2023/08/04 09:50:03;;;;;;;2.92;1.25;;;;;;;;;;5032211;28;20798;-83
2023/08/04 09:52:31;;;;;;;1.25;0.90;;;;;;;;;;5026624;28;20288;-83
2023/08/04 09:54:59;;;;;;;2.28;0.90;;;;;;;;;;5059997;28;20246;-85
2023/08/04 09:57:25;;;;;;;4.18;1.13;;;;;;;;;;5020939;28;20287;-85
2023/08/04 09:59:53;;;;;;;1.48;1.02;;;;;;;;;;5058696;28;20306;-84
2023/08/04 10:02:19;;;;;;;2.92;1.10;;;;;;;;;;5014826;28;20228;-83
2023/08/04 10:04:49;;;;;;;1.20;1.02;;;;;;;;;;5031898;28;20334;-85
2023/08/04 10:07:16;;;;;;;2.38;1.10;;;;;;;;;;5049627;28;20220;-83
2023/08/04 10:09:43;;;;;;;3.25;0.90;;;;;;;;;;5044888;28;20215;-83
2023/08/04 10:12:09;;;;;;;1.08;0.80;;;;;;;;;;5034374;28;20232;-84
2023/08/04 10:14:35;;;;;;;2.25;1.10;;;;;;;;;;5014334;28;20231;-85
2023/08/04 10:17:00;;;;;;;1.50;0.90;;;;;;;;;;5037215;28;20337;-85
2023/08/04 10:19:30;;;;;;;0.90;0.90;;;;;;;;;;5040031;28;20226;-84
2023/08/04 10:22:05;;;;;;;1.10;0.80;;;;;;;;;;5040005;28;20224;-86
2023/08/04 10:24:33;;;;;;;1.38;1.00;;;;;;;;;;5027691;28;20227;-84
2023/08/04 10:26:59;;;;;;;2.67;1.00;;;;;;;;;;5050911;28;20397;-85
2023/08/04 10:29:32;;;;;;;2.15;1.00;;;;;;;;;;5033149;28;20723;-87
2023/08/04 10:31:58;;;;;;;2.15;0.73;;;;;;;;;;5018757;28;20224;-83
2023/08/04 10:34:35;;;;;;;1.20;0.70;;;;;;;;;;5037134;28;20228;-84
2023/08/04 10:37:17;;;;;;;0.70;0.70;;;;;;;;;;5005258;28;20221;-85
2023/08/04 10:39:56;;;;;;;0.93;0.77;;;;;;;;;;5042676;28;20246;-81
2023/08/04 10:42:31;;;;;;;1.67;0.77;;;;;;;;;;5037263;28;20228;-84
2023/08/04 10:45:09;;;;;;;1.55;0.90;;;;;;;;;;5039222;28;20262;-83
2023/08/04 10:47:45;;;;;;;1.58;0.73;;;;;;;;;;5023119;28;20231;-84
2023/08/04 10:50:11;;;;;;;2.05;0.90;;;;;;;;;;5053718;28;20230;-85
2023/08/04 10:52:37;;;;;;;1.77;0.90;;;;;;;;;;5052359;28;20708;-85
2023/08/04 10:55:04;;;;;;;0.73;0.65;;;;;;;;;;5034353;28;20257;-84
2023/08/04 10:57:33;;;;;;;0.70;0.60;;;;;;;;;;5008450;28;20307;-84
2023/08/04 10:59:59;;;;;;;3.10;1.00;;;;;;;;;;5022967;28;20234;-82
2023/08/04 11:02:25;;;;;;;1.52;1.00;;;;;;;;;;5039551;28;20212;-85
2023/08/04 11:04:51;;;;;;;0.88;0.75;;;;;;;;;;5009751;28;20600;-85
2023/08/04 11:07:17;;;;;;;0.80;0.80;;;;;;;;;;5004703;28;20217;-86
2023/08/04 11:09:46;;;;;;;0.80;0.80;;;;;;;;;;5019107;28;20240;-84
2023/08/04 11:12:13;;;;;;;2.33;0.80;;;;;;;;;;5031432;28;20235;-84
2023/08/04 11:14:40;;;;;;;2.00;0.80;;;;;;;;;;5008735;28;20224;-82
2023/08/04 11:17:20;;;;;;;1.33;0.60;;;;;;;;;;5038610;28;20225;-84
2023/08/04 11:19:48;;;;;;;2.40;0.90;;;;;;;;;;5058272;28;20222;-84
2023/08/04 11:22:26;;;;;;;1.77;0.77;;;;;;;;;;5016648;28;20216;-85
2023/08/04 11:24:52;;;;;;;1.23;0.70;;;;;;;;;;5035346;28;20226;-83
2023/08/04 11:27:17;;;;;;;2.35;1.00;;;;;;;;;;5023913;28;20216;-83
2023/08/04 11:29:54;;;;;;;2.72;1.10;;;;;;;;;;5017595;28;20228;-81
2023/08/04 11:32:21;;;;;;;1.92;1.00;;;;;;;;;;5052079;28;20238;-84
2023/08/04 11:34:49;;;;;;;2.45;0.75;;;;;;;;;;5039508;28;20228;-85
2023/08/04 11:37:19;;;;;;;1.30;0.80;;;;;;;;;;5049954;28;20211;-84
2023/08/04 11:39:45;;;;;;;1.02;0.70;;;;;;;;;;5020626;28;20886;-84
2023/08/04 11:42:15;;;;;;;2.85;0.95;;;;;;;;;;5042874;28;20295;-81
2023/08/04 11:44:43;;;;;;;2.35;0.77;;;;;;;;;;5022030;28;20217;-81
2023/08/04 11:47:09;;;;;;;1.08;0.80;;;;;;;;;;5050398;28;20226;-84
2023/08/04 11:49:35;;;;;;;1.45;0.80;;;;;;;;;;5069889;28;20208;-84
2023/08/04 11:52:10;;;;;;;1.05;0.80;;;;;;;;;;5035527;28;20227;-82
2023/08/04 11:54:36;;;;;;;2.53;0.95;;;;;;;;;;5020364;28;20234;-83
2023/08/04 11:57:02;;;;;;;1.33;0.90;;;;;;;;;;5003417;28;20220;-82
2023/08/04 11:59:27;;;;;;;1.35;0.90;;;;;;;;;;5032871;28;20227;-84
2023/08/04 12:02:06;;;;;;;0.85;0.80;;;;;;;;;;4994011;28;20226;-83
2023/08/04 12:04:31;;;;;;;1.30;0.80;;;;;;;;;;5027689;28;20225;-84
2023/08/04 12:06:58;;;;;;;1.85;1.15;;;;;;;;;;5006485;28;20219;-84
2023/08/04 12:09:26;;;;;;;0.93;0.80;;;;;;;;;;5020160;28;20334;-83
2023/08/04 12:11:52;;;;;;;2.25;0.82;;;;;;;;;;5029877;28;20254;-82
2023/08/04 12:14:22;;;;;;;2.40;0.95;;;;;;;;;;5025857;28;20582;-83
2023/08/04 12:16:54;;;;;;;0.60;0.60;;;;;;;;;;5043096;28;20215;-84
2023/08/04 12:19:23;;;;;;;0.82;0.70;;;;;;;;;;5038334;28;20219;-85
2023/08/04 12:21:51;;;;;;;0.80;0.80;;;;;;;;;;5018799;28;20228;-87
2023/08/04 12:24:18;;;;;;;6.20;1.10;;;;;;;;;;5026326;28;20212;-84
2023/08/04 12:26:43;;;;;;;0.77;0.73;;;;;;;;;;5024289;28;20320;-84
2023/08/04 12:29:09;;;;;;;1.25;0.80;;;;;;;;;;5053569;28;20775;-83
2023/08/04 12:31:36;;;;;;;2.75;0.90;;;;;;;;;;5041455;28;20826;-80
2023/08/04 12:34:06;;;;;;;1.40;0.80;;;;;;;;;;5010385;28;20234;-84
2023/08/04 12:36:34;;;;;;;2.80;1.00;;;;;;;;;;5038096;28;20220;-86
2023/08/04 12:38:59;;;;;;;0.82;0.82;;;;;;;;;;5030448;28;20269;-84
2023/08/04 12:41:29;;;;;;;1.98;0.73;;;;;;;;;;5005588;28;20279;-83
2023/08/04 12:44:00;;;;;;;1.55;0.70;;;;;;;;;;5040075;28;20245;-83
2023/08/04 12:46:28;;;;;;;0.80;0.80;;;;;;;;;;5033996;28;20223;-84
2023/08/04 12:49:00;;;;;;;1.23;0.80;;;;;;;;;;5017117;28;20406;-85
2023/08/04 12:51:25;;;;;;;0.80;0.80;;;;;;;;;;5027897;28;20220;-83
2023/08/04 12:53:51;;;;;;;0.70;0.60;;;;;;;;;;5045332;28;20223;-84
2023/08/04 12:56:17;;;;;;;9.50;1.08;;;;;;;;;;5039979;28;20212;-84
2023/08/04 12:58:45;;;;;;;2.15;0.80;;;;;;;;;;5026545;28;20197;-85
2023/08/04 13:01:11;;;;;;;3.33;0.88;;;;;;;;;;4985016;28;20283;-83
2023/08/04 13:03:41;;;;;;;1.58;0.85;;;;;;;;;;5005941;28;20299;-83
2023/08/04 13:06:07;;;;;;;4.25;0.90;;;;;;;;;;5022858;28;20231;-84
2023/08/04 13:08:35;;;;;;;1.30;0.90;;;;;;;;;;5043002;28;20223;-83
2023/08/04 13:11:00;;;;;;;0.50;0.50;;;;;;;;;;5015995;28;20223;-81
2023/08/04 13:13:29;;;;;;;1.08;0.70;;;;;;;;;;5002735;28;20252;-83
2023/08/04 13:15:57;;;;;;;0.65;0.63;;;;;;;;;;5030907;28;20245;-83
2023/08/04 13:18:22;;;;;;;1.75;0.82;;;;;;;;;;5062891;28;20676;-85
2023/08/04 13:20:53;;;;;;;0.50;0.50;;;;;;;;;;5032245;28;20219;-84
2023/08/04 13:23:18;;;;;;;2.38;0.60;;;;;;;;;;5013053;28;20208;-83
2023/08/04 13:25:48;;;;;;;0.77;0.50;;;;;;;;;;5024571;28;20337;-84
2023/08/04 13:28:14;;;;;;;1.08;0.68;;;;;;;;;;5009281;28;20217;-84
2023/08/04 13:30:45;;;;;;;0.50;0.50;;;;;;;;;;5025539;28;20231;-82
2023/08/04 13:33:11;;;;;;;1.13;0.60;;;;;;;;;;5063292;28;20254;-83
2023/08/04 13:35:38;;;;;;;0.88;0.70;;;;;;;;;;5010850;28;20681;-85
2023/08/04 13:38:06;;;;;;;0.38;0.35;;;;;;;;;;5054531;28;20211;-81
2023/08/04 13:40:32;;;;;;;1.25;0.70;;;;;;;;;;5062422;28;20279;-82
2023/08/04 13:43:00;;;;;;;0.77;0.60;;;;;;;;;;5037878;28;20244;-82
2023/08/04 13:45:25;;;;;;;1.02;0.60;;;;;;;;;;5056609;28;20267;-84
2023/08/04 13:47:53;;;;;;;1.63;0.47;;;;;;;;;;5028376;28;20310;-80
2023/08/04 13:50:18;;;;;;;0.40;0.40;;;;;;;;;;5036527;28;20790;-80
2023/08/04 13:52:44;;;;;;;1.35;0.50;;;;;;;;;;5057876;28;20223;-82
2023/08/04 13:55:09;;;;;;;0.60;0.52;;;;;;;;;;5039547;28;20221;-82
2023/08/04 13:57:35;;;;;;;1.30;0.52;;;;;;;;;;5043831;28;20220;-84
2023/08/04 14:00:00;;;;;;;0.60;0.60;;;;;;;;;;5061389;28;20212;-81
2023/08/04 14:02:27;;;;;;;1.00;0.65;;;;;;;;;;5033676;28;20250;-81
2023/08/04 14:04:53;;;;;;;0.77;0.70;;;;;;;;;;5044801;28;20266;-80
2023/08/04 14:07:18;;;;;;;1.63;0.68;;;;;;;;;;5047128;28;20225;-81
2023/08/04 14:09:44;;;;;;;0.70;0.65;;;;;;;;;;5016214;28;20224;-82
2023/08/04 14:12:11;;;;;;;0.80;0.80;;;;;;;;;;5027425;28;20220;-84
2023/08/04 14:14:39;;;;;;;1.17;0.70;;;;;;;;;;4983053;28;20256;-83
2023/08/04 14:17:05;;;;;;;0.75;0.70;;;;;;;;;;5031741;28;20219;-82
2023/08/04 14:19:33;;;;;;;0.70;0.70;;;;;;;;;;5018386;28;20220;-81
2023/08/04 14:22:00;;;;;;;0.80;0.80;;;;;;;;;;5029647;28;20235;-83
2023/08/04 14:24:29;;;;;;;1.35;0.90;;;;;;;;;;5048247;28;20577;-82
2023/08/04 14:26:54;;;;;;;1.13;0.80;;;;;;;;;;5023126;28;20272;-84
2023/08/04 14:29:20;;;;;;;1.55;0.88;;;;;;;;;;4991276;28;20245;-82
2023/08/04 14:31:48;;;;;;;1.75;0.80;;;;;;;;;;5059338;28;20220;-82
2023/08/04 14:34:13;;;;;;;2.15;0.90;;;;;;;;;;5018924;28;20302;-82
2023/08/04 14:36:39;;;;;;;2.20;1.15;;;;;;;;;;5051783;28;20227;-83
2023/08/04 14:39:05;;;;;;;1.33;1.10;;;;;;;;;;4998607;28;20223;-82
2023/08/04 14:41:30;;;;;;;1.13;0.88;;;;;;;;;;5020517;28;20227;-82
2023/08/04 14:43:56;;;;;;;0.98;0.95;;;;;;;;;;5029826;28;20213;-84
2023/08/04 14:46:21;;;;;;;0.90;0.90;;;;;;;;;;5045926;28;20216;-84
2023/08/04 14:48:48;;;;;;;1.02;0.93;;;;;;;;;;5041057;28;20213;-82